Terminal Aerodrome Forecast
Issued by NWS Pocatello, ID

Home | Current Version | Previous Version | Text Only | Print | Product List | Glossary On
Versions: 1 2 3 4 5 6 7 8 9 10 11 12
000
FTUS45 KPIH 222337
TAFBYI
TAF
KBYI 222337Z 2300/2324 20006KT P6SM OVC250
     FM230300 21006KT P6SM BKN150 BKN250
     FM231400 20006KT P6SM VCSH SCT070 OVC100
     FM232000 12007KT P6SM VCTS OVC070CB=

USA.gov is the U.S. government's official web portal to all federal, state and local government web resources and services.